sensor_id;sensor_type;location;lat;lon;timestamp;temperature;humidity
10524;DHT22;5310;48.638;9.060;2023-02-01T00:01:31;2.40;99.90
10524;DHT22;5310;48.638;9.060;2023-02-01T00:08:51;2.40;99.90
10524;DHT22;5310;48.638;9.060;2023-02-01T00:13:43;2.40;99.90
10524;DHT22;5310;48.638;9.060;2023-02-01T00:16:17;2.40;99.90
10524;DHT22;5310;48.638;9.060;2023-02-01T00:21:14;2.40;99.90
10524;DHT22;5310;48.638;9.060;2023-02-01T00:26:10;2.40;99.90
10524;DHT22;5310;48.638;9.060;2023-02-01T00:33:31;2.40;99.90
10524;DHT22;5310;48.638;9.060;2023-02-01T00:35:57;2.40;99.90
10524;DHT22;5310;48.638;9.060;2023-02-01T00:38:24;2.40;99.90
10524;DHT22;5310;48.638;9.060;2023-02-01T00:43:16;2.40;99.90
10524;DHT22;5310;48.638;9.060;2023-02-01T00:48:07;2.40;99.90
10524;DHT22;5310;48.638;9.060;2023-02-01T00:55:25;2.40;99.90
10524;DHT22;5310;48.638;9.060;2023-02-01T01:00:16;2.40;99.90
10524;DHT22;5310;48.638;9.060;2023-02-01T01:22:10;2.50;99.90
10524;DHT22;5310;48.638;9.060;2023-02-01T01:29:27;2.60;99.90
10524;DHT22;5310;48.638;9.060;2023-02-01T01:41:36;2.60;99.90
10524;DHT22;5310;48.638;9.060;2023-02-01T01:44:03;2.60;99.90
10524;DHT22;5310;48.638;9.060;2023-02-01T01:46:39;2.60;99.90
10524;DHT22;5310;48.638;9.060;2023-02-01T01:49:18;2.60;99.90
10524;DHT22;5310;48.638;9.060;2023-02-01T01:51:59;2.60;99.90
10524;DHT22;5310;48.638;9.060;2023-02-01T01:54:41;2.60;99.90
10524;DHT22;5310;48.638;9.060;2023-02-01T01:57:30;2.60;99.90
10524;DHT22;5310;48.638;9.060;2023-02-01T02:07:25;2.60;99.90
10524;DHT22;5310;48.638;9.060;2023-02-01T02:09:52;2.70;99.90
10524;DHT22;5310;48.638;9.060;2023-02-01T02:19:55;2.70;99.90
10524;DHT22;5310;48.638;9.060;2023-02-01T02:28:02;2.80;99.90
10524;DHT22;5310;48.638;9.060;2023-02-01T02:30:36;2.80;99.90
10524;DHT22;5310;48.638;9.060;2023-02-01T02:38:18;2.80;99.90
10524;DHT22;5310;48.638;9.060;2023-02-01T02:43:23;2.80;99.90
10524;DHT22;5310;48.638;9.060;2023-02-01T02:49:09;2.80;99.90
10524;DHT22;5310;48.638;9.060;2023-02-01T02:51:45;2.90;99.90
10524;DHT22;5310;48.638;9.060;2023-02-01T02:57:19;2.90;99.90
10524;DHT22;5310;48.638;9.060;2023-02-01T03:00:08;2.90;99.90
10524;DHT22;5310;48.638;9.060;2023-02-01T03:02:53;2.90;99.90
10524;DHT22;5310;48.638;9.060;2023-02-01T03:05:41;2.80;99.90
10524;DHT22;5310;48.638;9.060;2023-02-01T03:08:21;2.90;99.90
10524;DHT22;5310;48.638;9.060;2023-02-01T03:11:00;2.90;99.90
10524;DHT22;5310;48.638;9.060;2023-02-01T03:21:32;2.90;99.90
10524;DHT22;5310;48.638;9.060;2023-02-01T03:24:03;2.90;99.90
10524;DHT22;5310;48.638;9.060;2023-02-01T03:29:07;2.90;99.90
10524;DHT22;5310;48.638;9.060;2023-02-01T03:31:33;2.80;99.90
10524;DHT22;5310;48.638;9.060;2023-02-01T03:33:59;2.80;99.90
10524;DHT22;5310;48.638;9.060;2023-02-01T03:39:08;2.90;99.90
10524;DHT22;5310;48.638;9.060;2023-02-01T03:41:40;2.90;99.90
10524;DHT22;5310;48.638;9.060;2023-02-01T03:44:20;2.90;99.90
10524;DHT22;5310;48.638;9.060;2023-02-01T03:47:24;2.90;99.90
10524;DHT22;5310;48.638;9.060;2023-02-01T03:57:14;2.90;99.90
10524;DHT22;5310;48.638;9.060;2023-02-01T04:11:52;2.80;99.90
10524;DHT22;5310;48.638;9.060;2023-02-01T04:14:18;2.90;99.90
10524;DHT22;5310;48.638;9.060;2023-02-01T04:33:51;2.90;99.90
10524;DHT22;5310;48.638;9.060;2023-02-01T04:36:18;3.00;99.90
10524;DHT22;5310;48.638;9.060;2023-02-01T04:41:12;3.00;99.90
10524;DHT22;5310;48.638;9.060;2023-02-01T04:43:37;3.00;99.90
10524;DHT22;5310;48.638;9.060;2023-02-01T04:46:03;3.00;99.90
10524;DHT22;5310;48.638;9.060;2023-02-01T04:50:56;3.00;99.90
10524;DHT22;5310;48.638;9.060;2023-02-01T04:53:21;3.00;99.90
10524;DHT22;5310;48.638;9.060;2023-02-01T04:55:48;3.00;99.90
10524;DHT22;5310;48.638;9.060;2023-02-01T05:00:40;3.00;99.90
10524;DHT22;5310;48.638;9.060;2023-02-01T05:07:57;3.00;99.90
10524;DHT22;5310;48.638;9.060;2023-02-01T05:22:51;3.00;99.90
10524;DHT22;5310;48.638;9.060;2023-02-01T05:27:43;3.10;99.90
10524;DHT22;5310;48.638;9.060;2023-02-01T05:30:09;3.10;99.90
10524;DHT22;5310;48.638;9.060;2023-02-01T05:35:01;3.10;99.90
10524;DHT22;5310;48.638;9.060;2023-02-01T05:37:26;3.10;99.90
10524;DHT22;5310;48.638;9.060;2023-02-01T05:39:52;3.10;99.90
10524;DHT22;5310;48.638;9.060;2023-02-01T05:42:18;3.10;99.90
10524;DHT22;5310;48.638;9.060;2023-02-01T05:49:36;3.20;99.90
10524;DHT22;5310;48.638;9.060;2023-02-01T05:52:02;3.20;99.90
10524;DHT22;5310;48.638;9.060;2023-02-01T05:54:27;3.10;99.90
10524;DHT22;5310;48.638;9.060;2023-02-01T05:56:53;3.20;99.90
10524;DHT22;5310;48.638;9.060;2023-02-01T06:06:36;3.10;99.90
10524;DHT22;5310;48.638;9.060;2023-02-01T06:09:03;3.10;99.90
10524;DHT22;5310;48.638;9.060;2023-02-01T06:11:29;3.10;99.90
10524;DHT22;5310;48.638;9.060;2023-02-01T06:13:55;3.00;99.90
10524;DHT22;5310;48.638;9.060;2023-02-01T06:16:21;3.00;99.90
10524;DHT22;5310;48.638;9.060;2023-02-01T06:18:47;3.00;99.90
10524;DHT22;5310;48.638;9.060;2023-02-01T06:26:07;3.00;99.90
10524;DHT22;5310;48.638;9.060;2023-02-01T06:33:32;3.00;99.90
10524;DHT22;5310;48.638;9.060;2023-02-01T06:36:03;3.00;99.90
10524;DHT22;5310;48.638;9.060;2023-02-01T06:38:29;3.00;99.90
10524;DHT22;5310;48.638;9.060;2023-02-01T06:40:56;3.10;99.90
10524;DHT22;5310;48.638;9.060;2023-02-01T06:45:49;3.10;99.90
10524;DHT22;5310;48.638;9.060;2023-02-01T06:48:14;3.00;99.90
10524;DHT22;5310;48.638;9.060;2023-02-01T06:50:40;3.00;99.90
10524;DHT22;5310;48.638;9.060;2023-02-01T06:55:31;3.00;99.90
10524;DHT22;5310;48.638;9.060;2023-02-01T07:05:15;2.90;99.90
10524;DHT22;5310;48.638;9.060;2023-02-01T07:19:54;2.90;99.90
10524;DHT22;5310;48.638;9.060;2023-02-01T07:24:46;3.00;99.90
10524;DHT22;5310;48.638;9.060;2023-02-01T07:39:22;3.20;99.90
10524;DHT22;5310;48.638;9.060;2023-02-01T07:58:52;3.40;99.90
10524;DHT22;5310;48.638;9.060;2023-02-01T08:01:23;3.40;99.90
10524;DHT22;5310;48.638;9.060;2023-02-01T08:08:47;3.50;99.90
10524;DHT22;5310;48.638;9.060;2023-02-01T08:11:13;3.50;99.90
10524;DHT22;5310;48.638;9.060;2023-02-01T08:23:45;3.60;99.90
10524;DHT22;5310;48.638;9.060;2023-02-01T08:28:38;3.60;99.90
10524;DHT22;5310;48.638;9.060;2023-02-01T08:36:03;3.70;99.90
10524;DHT22;5310;48.638;9.060;2023-02-01T08:38:29;3.70;99.90
10524;DHT22;5310;48.638;9.060;2023-02-01T08:57:56;4.00;99.90
10524;DHT22;5310;48.638;9.060;2023-02-01T09:12:35;4.00;99.90
10524;DHT22;5310;48.638;9.060;2023-02-01T09:17:27;4.00;99.90
10524;DHT22;5310;48.638;9.060;2023-02-01T09:22:19;4.00;99.90
10524;DHT22;5310;48.638;9.060;2023-02-01T09:34:29;4.00;99.90
10524;DHT22;5310;48.638;9.060;2023-02-01T09:47:23;4.20;99.90
10524;DHT22;5310;48.638;9.060;2023-02-01T09:50:08;4.20;99.90
10524;DHT22;5310;48.638;9.060;2023-02-01T09:55:21;4.30;99.90
10524;DHT22;5310;48.638;9.060;2023-02-01T09:57:57;4.30;99.90
10524;DHT22;5310;48.638;9.060;2023-02-01T10:08:15;4.50;99.90
10524;DHT22;5310;48.638;9.060;2023-02-01T10:10:49;4.60;99.90
10524;DHT22;5310;48.638;9.060;2023-02-01T10:16:27;4.70;99.90
10524;DHT22;5310;48.638;9.060;2023-02-01T10:19:17;4.80;99.90
10524;DHT22;5310;48.638;9.060;2023-02-01T10:21:58;5.00;99.90
10524;DHT22;5310;48.638;9.060;2023-02-01T10:24:41;5.00;99.90
10524;DHT22;5310;48.638;9.060;2023-02-01T10:34:57;5.40;99.90
10524;DHT22;5310;48.638;9.060;2023-02-01T10:37:33;5.40;99.90
10524;DHT22;5310;48.638;9.060;2023-02-01T10:42:40;5.40;99.90
10524;DHT22;5310;48.638;9.060;2023-02-01T10:47:32;5.50;99.90
10524;DHT22;5310;48.638;9.060;2023-02-01T10:50:09;5.50;99.90
10524;DHT22;5310;48.638;9.060;2023-02-01T10:52:52;5.40;99.90
10524;DHT22;5310;48.638;9.060;2023-02-01T10:55:33;5.40;99.90
10524;DHT22;5310;48.638;9.060;2023-02-01T11:05:46;5.60;99.90
10524;DHT22;5310;48.638;9.060;2023-02-01T11:08:15;5.70;99.90
10524;DHT22;5310;48.638;9.060;2023-02-01T11:10:42;5.70;99.90
10524;DHT22;5310;48.638;9.060;2023-02-01T11:13:16;5.60;99.90
10524;DHT22;5310;48.638;9.060;2023-02-01T11:15:46;5.60;99.90
10524;DHT22;5310;48.638;9.060;2023-02-01T11:18:25;5.70;99.90
10524;DHT22;5310;48.638;9.060;2023-02-01T11:23:22;5.60;99.90
10524;DHT22;5310;48.638;9.060;2023-02-01T11:28:17;5.70;99.90
10524;DHT22;5310;48.638;9.060;2023-02-01T11:33:16;5.90;99.90
10524;DHT22;5310;48.638;9.060;2023-02-01T11:35:43;5.90;99.90
10524;DHT22;5310;48.638;9.060;2023-02-01T11:43:28;5.90;99.90
10524;DHT22;5310;48.638;9.060;2023-02-01T12:12:08;5.60;99.90
10524;DHT22;5310;48.638;9.060;2023-02-01T12:14:59;5.60;99.90
10524;DHT22;5310;48.638;9.060;2023-02-01T12:20:24;5.50;99.90
10524;DHT22;5310;48.638;9.060;2023-02-01T12:26:03;5.40;99.90
10524;DHT22;5310;48.638;9.060;2023-02-01T12:31:08;5.40;99.90
10524;DHT22;5310;48.638;9.060;2023-02-01T12:39:35;5.40;99.60
10524;DHT22;5310;48.638;9.060;2023-02-01T12:52:37;5.30;99.90
10524;DHT22;5310;48.638;9.060;2023-02-01T12:55:17;5.20;99.90
10524;DHT22;5310;48.638;9.060;2023-02-01T13:00:32;5.20;99.90
10524;DHT22;5310;48.638;9.060;2023-02-01T13:03:22;5.30;99.90
10524;DHT22;5310;48.638;9.060;2023-02-01T13:09:14;5.20;99.90
10524;DHT22;5310;48.638;9.060;2023-02-01T13:11:44;5.10;99.90
10524;DHT22;5310;48.638;9.060;2023-02-01T13:14:33;5.10;99.90
10524;DHT22;5310;48.638;9.060;2023-02-01T13:19:43;5.10;99.90
10524;DHT22;5310;48.638;9.060;2023-02-01T13:22:17;5.00;99.90
10524;DHT22;5310;48.638;9.060;2023-02-01T13:25:01;5.00;99.90
10524;DHT22;5310;48.638;9.060;2023-02-01T13:27:29;5.00;99.90
10524;DHT22;5310;48.638;9.060;2023-02-01T13:30:25;5.00;99.90
10524;DHT22;5310;48.638;9.060;2023-02-01T13:33:01;5.00;99.90
10524;DHT22;5310;48.638;9.060;2023-02-01T13:35:55;4.90;99.90
10524;DHT22;5310;48.638;9.060;2023-02-01T13:51:15;4.80;99.90
10524;DHT22;5310;48.638;9.060;2023-02-01T13:56:16;4.80;99.90
10524;DHT22;5310;48.638;9.060;2023-02-01T13:58:44;4.90;99.90
10524;DHT22;5310;48.638;9.060;2023-02-01T14:03:59;4.90;99.90
10524;DHT22;5310;48.638;9.060;2023-02-01T14:09:11;4.90;99.90
10524;DHT22;5310;48.638;9.060;2023-02-01T14:16:41;4.80;99.90
10524;DHT22;5310;48.638;9.060;2023-02-01T14:24:32;4.80;99.90
10524;DHT22;5310;48.638;9.060;2023-02-01T14:27:20;4.80;99.90
10524;DHT22;5310;48.638;9.060;2023-02-01T14:29:56;4.80;99.90
10524;DHT22;5310;48.638;9.060;2023-02-01T14:32:43;4.80;99.90
10524;DHT22;5310;48.638;9.060;2023-02-01T14:35:25;4.80;99.90
10524;DHT22;5310;48.638;9.060;2023-02-01T14:37:53;4.80;99.90
10524;DHT22;5310;48.638;9.060;2023-02-01T14:40:24;4.80;99.90
10524;DHT22;5310;48.638;9.060;2023-02-01T15:08:54;5.00;99.90
10524;DHT22;5310;48.638;9.060;2023-02-01T15:16:16;5.10;99.90
10524;DHT22;5310;48.638;9.060;2023-02-01T15:21:23;5.10;99.90
10524;DHT22;5310;48.638;9.060;2023-02-01T15:31:32;5.00;99.90
10524;DHT22;5310;48.638;9.060;2023-02-01T15:33:58;5.00;99.90
10524;DHT22;5310;48.638;9.060;2023-02-01T15:41:54;4.80;99.90
10524;DHT22;5310;48.638;9.060;2023-02-01T15:44:52;4.80;99.90
10524;DHT22;5310;48.638;9.060;2023-02-01T15:47:23;4.90;99.90
10524;DHT22;5310;48.638;9.060;2023-02-01T15:57:35;4.70;99.90
10524;DHT22;5310;48.638;9.060;2023-02-01T16:10:39;4.60;99.90
10524;DHT22;5310;48.638;9.060;2023-02-01T16:20:24;4.50;99.90
10524;DHT22;5310;48.638;9.060;2023-02-01T16:25:16;4.40;99.90
10524;DHT22;5310;48.638;9.060;2023-02-01T16:30:08;4.50;99.90
10524;DHT22;5310;48.638;9.060;2023-02-01T16:32:36;4.40;99.90
10524;DHT22;5310;48.638;9.060;2023-02-01T16:37:51;4.50;99.90
10524;DHT22;5310;48.638;9.060;2023-02-01T16:42:45;4.50;99.90
10524;DHT22;5310;48.638;9.060;2023-02-01T16:50:16;4.40;99.90
10524;DHT22;5310;48.638;9.060;2023-02-01T16:52:42;4.40;99.90
10524;DHT22;5310;48.638;9.060;2023-02-01T17:00:05;4.30;99.90
10524;DHT22;5310;48.638;9.060;2023-02-01T17:29:24;4.20;99.90
10524;DHT22;5310;48.638;9.060;2023-02-01T17:31:54;4.20;99.90
10524;DHT22;5310;48.638;9.060;2023-02-01T17:39:16;4.20;99.90
10524;DHT22;5310;48.638;9.060;2023-02-01T17:44:26;4.20;99.90
10524;DHT22;5310;48.638;9.060;2023-02-01T18:08:48;3.80;99.90
10524;DHT22;5310;48.638;9.060;2023-02-01T18:11:20;3.80;99.90
10524;DHT22;5310;48.638;9.060;2023-02-01T18:16:20;4.00;99.90
10524;DHT22;5310;48.638;9.060;2023-02-01T18:18:46;4.00;99.90
10524;DHT22;5310;48.638;9.060;2023-02-01T18:38:14;4.20;99.90
10524;DHT22;5310;48.638;9.060;2023-02-01T18:48:01;4.30;99.90
10524;DHT22;5310;48.638;9.060;2023-02-01T18:50:32;4.20;99.90
10524;DHT22;5310;48.638;9.060;2023-02-01T18:55:26;4.30;99.90
10524;DHT22;5310;48.638;9.060;2023-02-01T19:02:45;4.40;99.90
10524;DHT22;5310;48.638;9.060;2023-02-01T19:10:05;4.40;99.90
10524;DHT22;5310;48.638;9.060;2023-02-01T19:12:32;4.50;99.90
10524;DHT22;5310;48.638;9.060;2023-02-01T19:15:02;4.50;99.90
10524;DHT22;5310;48.638;9.060;2023-02-01T19:17:28;4.40;99.90
10524;DHT22;5310;48.638;9.060;2023-02-01T19:19:54;4.50;99.90
10524;DHT22;5310;48.638;9.060;2023-02-01T19:36:57;4.50;99.90
10524;DHT22;5310;48.638;9.060;2023-02-01T19:44:19;4.60;99.90
10524;DHT22;5310;48.638;9.060;2023-02-01T19:49:10;4.60;99.90
10524;DHT22;5310;48.638;9.060;2023-02-01T19:51:39;4.60;99.90
10524;DHT22;5310;48.638;9.060;2023-02-01T19:54:06;4.50;99.90
10524;DHT22;5310;48.638;9.060;2023-02-01T19:56:36;4.40;99.90
10524;DHT22;5310;48.638;9.060;2023-02-01T19:59:03;4.40;99.90
10524;DHT22;5310;48.638;9.060;2023-02-01T20:03:58;4.40;99.90
10524;DHT22;5310;48.638;9.060;2023-02-01T20:06:28;4.40;99.90
10524;DHT22;5310;48.638;9.060;2023-02-01T20:08:54;4.40;99.90
10524;DHT22;5310;48.638;9.060;2023-02-01T20:26:02;4.40;99.90
10524;DHT22;5310;48.638;9.060;2023-02-01T20:30:55;4.40;99.90
10524;DHT22;5310;48.638;9.060;2023-02-01T20:43:05;4.20;99.90
10524;DHT22;5310;48.638;9.060;2023-02-01T20:55:16;4.20;99.90
10524;DHT22;5310;48.638;9.060;2023-02-01T21:02:34;4.20;99.90
10524;DHT22;5310;48.638;9.060;2023-02-01T21:09:52;4.20;99.90
10524;DHT22;5310;48.638;9.060;2023-02-01T21:22:11;4.10;99.90
10524;DHT22;5310;48.638;9.060;2023-02-01T21:24:38;4.10;99.90
10524;DHT22;5310;48.638;9.060;2023-02-01T21:39:15;4.00;99.90
10524;DHT22;5310;48.638;9.060;2023-02-01T21:44:27;4.00;99.90
10524;DHT22;5310;48.638;9.060;2023-02-01T21:46:52;4.10;99.90
10524;DHT22;5310;48.638;9.060;2023-02-01T21:51:48;4.00;99.90
10524;DHT22;5310;48.638;9.060;2023-02-01T21:54:14;4.00;99.90
10524;DHT22;5310;48.638;9.060;2023-02-01T21:56:40;4.00;99.90
10524;DHT22;5310;48.638;9.060;2023-02-01T22:01:32;4.00;99.90
10524;DHT22;5310;48.638;9.060;2023-02-01T22:03:57;4.00;99.90
10524;DHT22;5310;48.638;9.060;2023-02-01T22:11:30;4.00;99.90
10524;DHT22;5310;48.638;9.060;2023-02-01T22:18:49;4.00;99.90
10524;DHT22;5310;48.638;9.060;2023-02-01T22:26:07;4.00;99.90
10524;DHT22;5310;48.638;9.060;2023-02-01T22:31:02;4.00;99.90
10524;DHT22;5310;48.638;9.060;2023-02-01T22:38:20;4.00;99.90
10524;DHT22;5310;48.638;9.060;2023-02-01T22:55:31;3.90;99.90
10524;DHT22;5310;48.638;9.060;2023-02-01T23:00:23;4.00;99.90
10524;DHT22;5310;48.638;9.060;2023-02-01T23:05:15;3.90;99.90
10524;DHT22;5310;48.638;9.060;2023-02-01T23:14:59;4.00;99.90
10524;DHT22;5310;48.638;9.060;2023-02-01T23:17:34;4.00;99.90
10524;DHT22;5310;48.638;9.060;2023-02-01T23:29:44;3.90;99.90
10524;DHT22;5310;48.638;9.060;2023-02-01T23:49:12;3.80;99.90
10524;DHT22;5310;48.638;9.060;2023-02-01T23:54:06;3.80;99.90
10524;DHT22;5310;48.638;9.060;2023-02-01T23:56:40;3.80;99.90
10524;DHT22;5310;48.638;9.060;2023-02-01T23:59:11;3.80;99.90
